Time;durP1;ratioP1;P1;durP2;ratioP2;P2;SDS_P1;SDS_P2;PMS_P1;PMS_P2;Temp;Humidity;BMP_temperature;BMP_pressure;BME280_temperature;BME280_humidity;BME280_pressure;Samples;Min_cycle;Max_cycle;Signal;HPM_P1;HPM_P2
2022/03/30 00:00:51;;;;;;;30.17;18.48;;;409.80;819.20;;;;;;5095075;28;20047;-61
2022/03/30 00:03:17;;;;;;;36.30;18.33;;;409.80;844.80;;;;;;5095577;28;20028;-60
2022/03/30 00:05:42;;;;;;;31.63;17.95;;;409.70;844.80;;;;;;5095377;28;20472;-59
2022/03/30 00:08:08;;;;;;;33.85;18.75;;;409.70;844.80;;;;;;5095046;28;20493;-61
2022/03/30 00:10:34;;;;;;;35.00;20.25;;;409.70;844.80;;;;;;5095151;28;20110;-62
2022/03/30 00:13:01;;;;;;;27.00;16.95;;;409.70;844.80;;;;;;5094736;28;20380;-61
2022/03/30 00:15:28;;;;;;;34.13;18.13;;;409.60;844.80;;;;;;5093851;28;20054;-61
2022/03/30 00:17:53;;;;;;;37.10;18.55;;;409.70;844.80;;;;;;5094911;28;20016;-60
2022/03/30 00:20:19;;;;;;;37.88;17.70;;;409.60;844.80;;;;;;5094959;28;20039;-60
2022/03/30 00:22:46;;;;;;;27.65;16.85;;;409.60;844.80;;;;;;5094977;28;20438;-62
2022/03/30 00:25:13;;;;;;;35.75;18.50;;;409.60;844.80;;;;;;5094802;28;20028;-62
2022/03/30 00:27:46;;;;;;;28.98;17.30;;;409.60;844.80;;;;;;5094884;28;20031;-59
2022/03/30 00:30:13;;;;;;;30.20;16.63;;;384.90;819.20;;;;;;5094629;28;20480;-61
2022/03/30 00:32:39;;;;;;;28.83;17.73;;;409.60;844.80;;;;;;5094578;28;20477;-62
2022/03/30 00:35:07;;;;;;;36.85;18.58;;;384.90;819.20;;;;;;5094642;28;20077;-60
2022/03/30 00:37:34;;;;;;;31.35;18.17;;;384.70;844.80;;;;;;5094857;28;20024;-63
2022/03/30 00:40:00;;;;;;;30.83;18.35;;;384.80;819.20;;;;;;5094655;28;20458;-63
2022/03/30 00:42:26;;;;;;;28.23;18.17;;;384.70;844.80;;;;;;5094652;28;20035;-63
2022/03/30 00:44:54;;;;;;;30.20;18.23;;;384.60;819.20;;;;;;5094497;28;20027;-64
2022/03/30 00:47:23;;;;;;;33.45;17.52;;;384.60;844.80;;;;;;5094371;28;20031;-62
2022/03/30 00:49:49;;;;;;;28.38;17.73;;;384.60;844.80;;;;;;5094467;28;20381;-59
2022/03/30 00:52:15;;;;;;;31.42;17.50;;;384.50;844.80;;;;;;5094057;28;20397;-62
2022/03/30 00:54:45;;;;;;;34.95;17.98;;;384.40;844.80;;;;;;5094365;28;20024;-64
2022/03/30 00:57:11;;;;;;;29.02;18.23;;;384.40;844.80;;;;;;5094460;28;20024;-64
2022/03/30 00:59:38;;;;;;;28.73;18.15;;;384.40;844.80;;;;;;5094085;28;20016;-64
2022/03/30 01:02:04;;;;;;;30.75;18.23;;;384.40;844.80;;;;;;5094119;28;20538;-59
2022/03/30 01:04:33;;;;;;;31.35;17.65;;;384.40;844.80;;;;;;5094178;28;20047;-59
2022/03/30 01:06:59;;;;;;;26.25;17.33;;;384.40;844.80;;;;;;5094055;28;20034;-64
2022/03/30 01:09:25;;;;;;;30.95;17.35;;;384.30;844.80;;;;;;5093994;28;20059;-62
2022/03/30 01:11:55;;;;;;;27.92;15.48;;;384.40;844.80;;;;;;5094159;28;20039;-62
2022/03/30 01:14:23;;;;;;;32.53;16.20;;;384.40;844.80;;;;;;5093456;28;20458;-62
2022/03/30 01:16:49;;;;;;;27.83;15.60;;;384.30;844.80;;;;;;5094342;28;20036;-60
2022/03/30 01:19:15;;;;;;;33.40;15.60;;;384.20;844.80;;;;;;5093894;28;20024;-63
2022/03/30 01:21:42;;;;;;;29.42;15.80;;;384.10;870.40;;;;;;5093954;28;20065;-63
2022/03/30 01:24:09;;;;;;;32.42;14.55;;;384.20;870.40;;;;;;5093960;28;20163;-64
2022/03/30 01:26:36;;;;;;;33.20;15.15;;;384.10;870.40;;;;;;5093859;28;20416;-60
2022/03/30 01:32:25;;;;;;;22.75;15.25;;;384.10;870.40;;;;;;5093811;28;20028;-60
2022/03/30 01:34:35;;;;;;;24.08;13.65;;;384.20;870.40;;;;;;5094046;28;20104;-60
2022/03/30 01:37:03;;;;;;;24.48;14.07;;;384.20;870.40;;;;;;5093950;28;20035;-60
2022/03/30 01:39:29;;;;;;;23.75;14.02;;;384.20;870.40;;;;;;5093856;28;20047;-63
2022/03/30 01:41:55;;;;;;;23.75;13.93;;;384.20;870.40;;;;;;5094101;28;20020;-63
2022/03/30 01:44:21;;;;;;;24.48;12.77;;;384.30;870.40;;;;;;5093652;28;20035;-60
2022/03/30 01:46:46;;;;;;;25.15;14.10;;;384.30;870.40;;;;;;5093669;28;20028;-59
2022/03/30 01:49:12;;;;;;;21.48;13.05;;;384.30;870.40;;;;;;5094072;28;20107;-59
2022/03/30 01:51:38;;;;;;;27.10;13.40;;;384.30;870.40;;;;;;5093656;28;20040;-60
2022/03/30 01:54:04;;;;;;;30.80;13.35;;;384.30;896.00;;;;;;5093797;28;20020;-60
2022/03/30 01:56:30;;;;;;;35.47;15.70;;;384.40;896.00;;;;;;5093613;28;20537;-64
2022/03/30 01:58:56;;;;;;;26.65;14.70;;;384.40;870.40;;;;;;5093237;28;20024;-59
2022/03/30 02:01:22;;;;;;;31.23;15.40;;;384.40;870.40;;;;;;5093819;28;20032;-59
2022/03/30 02:03:47;;;;;;;31.00;16.63;;;384.40;896.00;;;;;;5093237;28;20020;-64
2022/03/30 02:06:14;;;;;;;26.60;17.17;;;384.40;896.00;;;;;;5093736;28;20362;-62
2022/03/30 02:08:40;;;;;;;27.55;17.02;;;384.40;896.00;;;;;;5093237;28;20051;-59
2022/03/30 02:11:06;;;;;;;27.85;16.98;;;384.40;896.00;;;;;;5093230;28;20539;-62
2022/03/30 02:13:32;;;;;;;33.72;18.50;;;384.40;870.40;;;;;;5094081;28;20028;-59
2022/03/30 02:15:58;;;;;;;34.10;19.55;;;384.30;896.00;;;;;;5093863;28;20482;-63
2022/03/30 02:18:24;;;;;;;37.22;22.55;;;384.40;896.00;;;;;;5093587;28;20031;-64
2022/03/30 02:20:50;;;;;;;33.67;21.35;;;384.40;896.00;;;;;;5093572;28;20024;-63
2022/03/30 02:23:15;;;;;;;37.53;21.55;;;384.30;896.00;;;;;;5093475;28;20020;-59
2022/03/30 02:25:41;;;;;;;33.53;20.80;;;384.30;896.00;;;;;;5096894;28;20047;-64
2022/03/30 02:28:07;;;;;;;33.25;20.00;;;384.30;896.00;;;;;;5097118;28;20109;-60
2022/03/30 02:30:32;;;;;;;32.42;19.38;;;384.30;896.00;;;;;;5095683;28;20396;-59
2022/03/30 02:32:58;;;;;;;32.45;17.85;;;384.30;896.00;;;;;;5097156;28;20020;-63
2022/03/30 02:35:24;;;;;;;29.30;17.05;;;384.30;896.00;;;;;;5097473;28;20523;-62
2022/03/30 02:37:54;;;;;;;31.50;16.98;;;384.20;896.00;;;;;;5096940;28;20027;-63
2022/03/30 02:40:20;;;;;;;31.20;17.75;;;384.30;896.00;;;;;;5096983;28;20051;-60
2022/03/30 02:42:46;;;;;;;28.67;17.17;;;384.30;896.00;;;;;;5096975;28;20071;-62
2022/03/30 02:45:12;;;;;;;28.90;16.98;;;384.30;896.00;;;;;;5096922;28;20085;-63
2022/03/30 02:50:21;;;;;;;33.50;17.93;;;384.30;896.00;;;;;;5096965;28;20077;-59
2022/03/30 02:52:47;;;;;;;27.52;15.32;;;384.20;896.00;;;;;;5096974;28;20024;-59
2022/03/30 02:55:13;;;;;;;28.75;14.55;;;384.20;921.60;;;;;;5097108;28;20106;-59
2022/03/30 02:57:40;;;;;;;31.30;15.20;;;384.10;921.60;;;;;;5096727;28;20028;-60
2022/03/30 03:00:07;;;;;;;26.02;14.32;;;384.10;921.60;;;;;;5096434;28;20036;-62
2022/03/30 03:02:34;;;;;;;32.50;14.73;;;384.10;947.20;;;;;;5096458;28;20032;-59
2022/03/30 03:05:01;;;;;;;26.20;14.75;;;384.10;947.20;;;;;;5096526;28;20043;-62
2022/03/30 03:07:27;;;;;;;29.70;14.95;;;384.10;947.20;;;;;;5096314;28;20036;-60
2022/03/30 03:09:53;;;;;;;29.67;15.45;;;384.10;947.20;;;;;;5095878;28;20048;-62
2022/03/30 03:12:19;;;;;;;34.25;18.15;;;384.10;947.20;;;;;;5096171;28;20047;-62
2022/03/30 03:14:45;;;;;;;36.65;19.00;;;384.10;947.20;;;;;;5096121;28;20069;-59
2022/03/30 03:17:11;;;;;;;36.10;20.75;;;384.10;947.20;;;;;;5096173;28;20103;-63
2022/03/30 03:19:37;;;;;;;31.98;19.42;;;384.10;947.20;;;;;;5096179;28;20028;-60
2022/03/30 03:22:04;;;;;;;40.58;20.42;;;384.10;947.20;;;;;;5096198;28;20028;-63
2022/03/30 03:24:30;;;;;;;33.38;18.83;;;384.10;947.20;;;;;;5096069;28;20031;-63
2022/03/30 03:26:56;;;;;;;38.45;21.70;;;384.00;972.80;;;;;;5095890;28;20032;-59
2022/03/30 03:29:21;;;;;;;45.53;22.63;;;384.00;947.20;;;;;;5096060;28;20103;-62
2022/03/30 03:31:47;;;;;;;38.17;21.42;;;384.00;972.80;;;;;;5096028;28;20036;-60
2022/03/30 03:34:13;;;;;;;33.40;19.50;;;384.00;972.80;;;;;;5096066;28;20047;-65
2022/03/30 03:36:39;;;;;;;33.90;21.90;;;384.00;972.80;;;;;;5095248;28;20493;-65
2022/03/30 03:39:04;;;;;;;34.63;21.48;;;384.00;972.80;;;;;;5095317;28;20102;-65
2022/03/30 03:41:30;;;;;;;36.50;21.30;;;384.00;972.80;;;;;;5096162;28;20032;-64
2022/03/30 03:43:56;;;;;;;32.63;19.35;;;359.30;972.80;;;;;;5095598;28;20028;-63
2022/03/30 03:46:22;;;;;;;37.50;19.08;;;359.30;972.80;;;;;;5095719;28;20028;-63
2022/03/30 03:48:47;;;;;;;36.60;19.10;;;359.30;972.80;;;;;;5096087;28;20043;-63
2022/03/30 03:51:13;;;;;;;33.38;18.67;;;359.30;972.80;;;;;;5095524;28;20423;-66
2022/03/30 03:53:39;;;;;;;31.77;16.92;;;359.30;998.40;;;;;;5095266;28;20024;-66
2022/03/30 03:56:05;;;;;;;32.67;16.13;;;359.30;972.80;;;;;;5095200;28;20032;-61
2022/03/30 03:58:31;;;;;;;32.85;16.25;;;359.20;998.40;;;;;;5095448;28;20395;-63
2022/03/30 04:00:57;;;;;;;40.20;15.68;;;359.20;998.40;;;;;;5095181;28;20107;-64
2022/03/30 04:03:23;;;;;;;36.05;14.80;;;359.20;998.40;;;;;;5094923;28;20154;-58
2022/03/30 04:05:48;;;;;;;26.70;16.33;;;384.00;1075.20;;;;;;5095160;28;20115;-58
2022/03/30 04:08:15;;;;;;;32.75;16.02;;;359.30;998.40;;;;;;5095027;28;20047;-60
2022/03/30 04:10:41;;;;;;;36.13;16.25;;;359.20;998.40;;;;;;5094803;28;20030;-61
2022/03/30 04:13:07;;;;;;;30.05;17.75;;;359.10;998.40;;;;;;5094831;28;20107;-62
2022/03/30 04:15:39;;;;;;;38.10;16.77;;;359.10;1024.00;;;;;;5094901;28;20473;-61
2022/03/30 04:18:07;;;;;;;36.50;16.85;;;359.00;1024.00;;;;;;5095089;28;20035;-66
2022/03/30 04:20:33;;;;;;;40.97;19.27;;;359.00;1024.00;;;;;;5095195;28;20020;-66
2022/03/30 04:22:59;;;;;;;30.92;17.05;;;358.90;1024.00;;;;;;5095015;28;20024;-60
2022/03/30 04:25:26;;;;;;;24.00;14.57;;;358.90;1024.00;;;;;;5094908;28;20036;-60
2022/03/30 04:27:53;;;;;;;29.55;15.57;;;358.90;1024.00;;;;;;5094650;28;20036;-61
2022/03/30 04:30:21;;;;;;;33.97;17.23;;;358.80;1024.00;;;;;;5094084;28;20055;-64
2022/03/30 04:32:47;;;;;;;33.13;17.23;;;358.80;1049.60;;;;;;5091009;28;20058;-60
2022/03/30 04:35:14;;;;;;;25.40;14.80;;;358.70;1049.60;;;;;;5094101;28;20496;-66
2022/03/30 04:37:40;;;;;;;29.85;13.65;;;358.70;1024.00;;;;;;5093936;28;20069;-60
2022/03/30 04:40:07;;;;;;;28.27;12.98;;;358.70;1049.60;;;;;;5094459;28;20385;-64
2022/03/30 04:42:33;;;;;;;32.65;13.63;;;358.60;1049.60;;;;;;5094701;28;20016;-65
2022/03/30 04:44:59;;;;;;;35.10;12.23;;;358.70;1049.60;;;;;;5093730;28;20024;-62
2022/03/30 04:47:26;;;;;;;41.10;13.50;;;358.70;1049.60;;;;;;5093007;28;20031;-61
2022/03/30 04:49:52;;;;;;;27.02;11.27;;;358.70;1049.60;;;;;;5094436;28;20028;-66
2022/03/30 04:52:19;;;;;;;17.30;10.02;;;358.60;1049.60;;;;;;5094048;28;20044;-66
2022/03/30 04:54:44;;;;;;;25.98;11.82;;;358.60;1049.60;;;;;;5093792;28;20024;-64
2022/03/30 04:57:10;;;;;;;26.70;12.35;;;358.50;1049.60;;;;;;5093057;28;20024;-62
2022/03/30 04:59:36;;;;;;;28.90;12.73;;;358.40;1049.60;;;;;;5092328;28;20973;-61
2022/03/30 05:02:02;;;;;;;29.45;13.18;;;333.70;1049.60;;;;;;5093169;28;20108;-66
2022/03/30 05:04:29;;;;;;;31.23;13.10;;;333.60;1075.20;;;;;;5092940;28;20107;-61
2022/03/30 05:06:55;;;;;;;24.90;12.32;;;333.60;1075.20;;;;;;5093067;28;20028;-66
2022/03/30 05:09:21;;;;;;;30.23;12.25;;;333.40;1075.20;;;;;;5092968;28;20052;-66
2022/03/30 05:11:46;;;;;;;22.38;11.32;;;333.30;1100.80;;;;;;5094355;28;20036;-67
2022/03/30 05:14:12;;;;;;;37.13;12.40;;;333.20;1100.80;;;;;;5093303;28;20028;-63
2022/03/30 05:16:38;;;;;;;25.73;12.65;;;333.20;1100.80;;;;;;5092136;28;20048;-61
2022/03/30 05:19:04;;;;;;;20.17;11.30;;;333.10;1126.40;;;;;;5092374;28;20055;-65
2022/03/30 05:21:30;;;;;;;32.72;11.75;;;333.10;1126.40;;;;;;5092361;28;20027;-61
2022/03/30 05:23:55;;;;;;;35.78;13.15;;;333.00;1126.40;;;;;;5089951;28;20020;-66
2022/03/30 05:26:21;;;;;;;29.98;14.27;;;333.00;1126.40;;;;;;5092572;28;20436;-61
2022/03/30 05:28:47;;;;;;;24.67;12.40;;;333.00;1126.40;;;;;;5092661;28;20024;-67
2022/03/30 05:31:12;;;;;;;54.58;13.10;;;333.00;1126.40;;;;;;5092369;28;20032;-66
2022/03/30 05:33:38;;;;;;;67.65;13.80;;;332.90;1152.00;;;;;;5092463;28;20035;-67
2022/03/30 05:36:04;;;;;;;80.25;14.52;;;332.90;1152.00;;;;;;5091848;28;20028;-61
2022/03/30 05:38:30;;;;;;;52.58;13.13;;;333.00;1152.00;;;;;;5091816;28;20497;-67
2022/03/30 05:40:57;;;;;;;40.25;14.40;;;332.90;1152.00;;;;;;5092068;28;20036;-62
2022/03/30 05:43:25;;;;;;;49.05;14.05;;;333.00;1152.00;;;;;;5089411;28;20028;-65
2022/03/30 05:45:51;;;;;;;43.80;14.15;;;333.00;1152.00;;;;;;5092260;28;20028;-67
2022/03/30 05:48:17;;;;;;;36.13;14.10;;;333.10;1152.00;;;;;;5092119;28;20024;-62
2022/03/30 05:50:45;;;;;;;35.85;12.15;;;333.20;1152.00;;;;;;5092278;28;20088;-66
2022/03/30 05:53:11;;;;;;;36.92;12.10;;;333.20;1152.00;;;;;;5093760;28;20055;-62
2022/03/30 05:55:37;;;;;;;39.05;12.02;;;333.30;1152.00;;;;;;5092719;28;20110;-60
2022/03/30 05:58:03;;;;;;;32.55;11.40;;;333.30;1152.00;;;;;;5093526;28;20394;-67
2022/03/30 06:00:30;;;;;;;29.60;11.18;;;333.40;1152.00;;;;;;5096622;28;20028;-67
2022/03/30 06:02:56;;;;;;;26.85;12.00;;;333.50;1152.00;;;;;;5096953;28;20044;-66
2022/03/30 06:05:21;;;;;;;32.42;12.35;;;333.60;1152.00;;;;;;5095937;28;20047;-65
2022/03/30 06:07:47;;;;;;;30.52;10.82;;;333.60;1152.00;;;;;;5094663;28;20036;-62
2022/03/30 06:10:14;;;;;;;26.00;11.80;;;333.70;1126.40;;;;;;5096094;28;20020;-62
2022/03/30 06:12:39;;;;;;;32.75;11.32;;;358.40;1126.40;;;;;;5095890;28;20121;-67
2022/03/30 06:15:06;;;;;;;22.52;9.75;;;358.40;1126.40;;;;;;5096964;28;20032;-62
2022/03/30 06:17:32;;;;;;;29.63;10.38;;;358.50;1126.40;;;;;;5097519;28;20024;-68
2022/03/30 06:19:59;;;;;;;39.83;14.30;;;358.60;1126.40;;;;;;5097414;28;20465;-65
2022/03/30 06:22:29;;;;;;;41.92;15.48;;;358.70;1126.40;;;;;;5097315;28;20024;-65
2022/03/30 06:24:55;;;;;;;223.77;57.95;;;358.70;1126.40;;;;;;5097304;28;20031;-67
2022/03/30 06:27:22;;;;;;;183.77;51.55;;;358.80;1126.40;;;;;;5096563;28;20028;-67
2022/03/30 06:29:48;;;;;;;160.63;51.75;;;358.90;1126.40;;;;;;5097009;28;20027;-63
2022/03/30 06:32:14;;;;;;;140.80;54.03;;;359.00;1126.40;;;;;;5096665;28;20043;-67
2022/03/30 06:34:40;;;;;;;67.80;34.08;;;359.10;1126.40;;;;;;5097096;28;20386;-62
2022/03/30 06:37:06;;;;;;;66.53;27.65;;;359.20;1126.40;;;;;;5096706;28;20028;-66
2022/03/30 06:39:35;;;;;;;68.80;28.23;;;359.30;1100.80;;;;;;5097015;28;20478;-67
2022/03/30 06:42:01;;;;;;;50.50;20.65;;;384.10;1100.80;;;;;;5096395;28;20081;-67
2022/03/30 06:44:27;;;;;;;45.05;12.50;;;384.10;1100.80;;;;;;5096833;28;20043;-66
2022/03/30 06:46:53;;;;;;;38.40;9.88;;;384.30;1100.80;;;;;;5096157;28;20024;-67
2022/03/30 06:49:19;;;;;;;28.50;9.23;;;384.40;1075.20;;;;;;5096398;28;20024;-67
2022/03/30 06:51:44;;;;;;;30.58;9.77;;;384.60;1075.20;;;;;;5097287;28;20562;-59
2022/03/30 06:54:10;;;;;;;73.13;12.68;;;384.80;1100.80;;;;;;5096548;28;20043;-59
2022/03/30 06:56:36;;;;;;;47.55;14.25;;;409.60;1100.80;;;;;;5096337;28;20024;-68
2022/03/30 06:59:01;;;;;;;46.22;11.45;;;409.60;1075.20;;;;;;5096565;28;20059;-68
2022/03/30 07:01:27;;;;;;;44.92;11.70;;;409.70;1049.60;;;;;;5096531;28;20488;-62
2022/03/30 07:03:53;;;;;;;56.45;16.00;;;409.80;1049.60;;;;;;5096630;28;20024;-59
2022/03/30 07:06:19;;;;;;;125.47;41.95;;;409.90;1049.60;;;;;;5096491;28;20107;-68
2022/03/30 07:11:28;;;;;;;59.70;24.08;;;410.00;1049.60;;;;;;5095214;28;20397;-59
2022/03/30 07:13:57;;;;;;;38.42;17.50;;;410.10;1049.60;;;;;;5096274;28;20021;-69
2022/03/30 07:16:23;;;;;;;43.50;14.68;;;410.20;1049.60;;;;;;5096376;28;20104;-68
2022/03/30 07:18:50;;;;;;;52.03;16.00;;;410.30;1049.60;;;;;;5096170;28;20402;-62
2022/03/30 07:21:16;;;;;;;43.72;12.20;;;410.30;1024.00;;;;;;5095979;28;20491;-68
2022/03/30 07:23:42;;;;;;;34.60;12.57;;;410.50;1024.00;;;;;;5096417;28;20027;-69
2022/03/30 07:26:08;;;;;;;51.42;13.98;;;435.20;1024.00;;;;;;5096035;28;20546;-68
2022/03/30 07:28:35;;;;;;;46.67;14.30;;;435.30;1049.60;;;;;;5096030;28;20103;-60
2022/03/30 07:31:01;;;;;;;47.63;16.35;;;435.30;1024.00;;;;;;5096009;28;20039;-68
2022/03/30 07:33:29;;;;;;;44.33;11.65;;;435.40;1024.00;;;;;;5096051;28;20067;-59
2022/03/30 07:35:55;;;;;;;41.45;11.88;;;435.40;1024.00;;;;;;5095698;28;20024;-69
2022/03/30 07:38:21;;;;;;;54.47;15.82;;;435.50;1024.00;;;;;;5095893;28;20024;-69
2022/03/30 07:40:49;;;;;;;45.28;13.60;;;435.60;1024.00;;;;;;5095269;28;20118;-61
2022/03/30 07:43:15;;;;;;;42.85;12.30;;;435.60;998.40;;;;;;5095756;28;20024;-63
2022/03/30 07:45:42;;;;;;;44.42;9.90;;;435.70;972.80;;;;;;5095691;28;20103;-69
2022/03/30 07:48:12;;;;;;;48.47;9.82;;;435.80;947.20;;;;;;5096144;28;20464;-68
2022/03/30 07:50:38;;;;;;;51.75;9.65;;;435.90;947.20;;;;;;5095337;28;20059;-69
2022/03/30 07:53:04;;;;;;;47.92;10.73;;;436.00;947.20;;;;;;5095670;28;20543;-68
2022/03/30 07:55:30;;;;;;;54.33;10.27;;;436.00;947.20;;;;;;5095498;28;20473;-60
2022/03/30 07:57:56;;;;;;;31.05;7.85;;;436.00;921.60;;;;;;5095615;28;20028;-59
2022/03/30 08:00:22;;;;;;;24.42;6.97;;;436.00;921.60;;;;;;5095478;28;20020;-70
2022/03/30 08:02:49;;;;;;;18.13;6.57;;;460.80;947.20;;;;;;5095368;28;20108;-69
2022/03/30 08:05:16;;;;;;;34.35;7.57;;;460.90;947.20;;;;;;5095384;28;20032;-59
2022/03/30 08:07:46;;;;;;;26.80;5.65;;;461.00;921.60;;;;;;5095235;28;20428;-64
2022/03/30 08:10:12;;;;;;;24.52;6.70;;;461.10;921.60;;;;;;5095149;28;20036;-63
2022/03/30 08:12:42;;;;;;;28.55;7.00;;;461.10;896.00;;;;;;5095259;28;20032;-70
2022/03/30 08:15:09;;;;;;;20.73;7.47;;;461.20;896.00;;;;;;5095090;28;20100;-66
2022/03/30 08:17:35;;;;;;;25.83;6.93;;;461.30;921.60;;;;;;5094062;28;20409;-70
2022/03/30 08:20:01;;;;;;;26.90;7.32;;;461.30;896.00;;;;;;5094738;28;20024;-59
2022/03/30 08:22:28;;;;;;;29.52;8.40;;;461.40;896.00;;;;;;5094938;28;20024;-59
2022/03/30 08:25:14;;;;;;;21.25;7.38;;;461.50;896.00;;;;;;5095045;28;20016;-69
2022/03/30 08:27:40;;;;;;;137.60;40.25;;;461.50;896.00;;;;;;5094499;28;20038;-60
2022/03/30 08:30:06;;;;;;;34.25;11.88;;;461.60;870.40;;;;;;5094767;28;20103;-63
2022/03/30 08:32:33;;;;;;;22.90;8.02;;;461.60;870.40;;;;;;5095373;28;20028;-61
2022/03/30 08:34:59;;;;;;;28.75;8.48;;;461.60;870.40;;;;;;5094832;28;20024;-62
2022/03/30 08:37:25;;;;;;;19.55;6.78;;;461.60;896.00;;;;;;5094786;28;20378;-60
2022/03/30 08:39:53;;;;;;;38.83;6.88;;;461.70;896.00;;;;;;5094195;28;20115;-69
2022/03/30 08:42:19;;;;;;;25.83;6.60;;;486.40;870.40;;;;;;5094600;28;20030;-63
2022/03/30 08:44:49;;;;;;;17.50;6.20;;;486.40;870.40;;;;;;5094694;28;20028;-69
2022/03/30 08:47:15;;;;;;;18.33;6.32;;;486.40;870.40;;;;;;5094653;28;20044;-59
2022/03/30 08:49:42;;;;;;;24.08;6.72;;;486.40;870.40;;;;;;5094544;28;20020;-59
2022/03/30 08:52:10;;;;;;;21.88;6.38;;;486.50;870.40;;;;;;5094469;28;20385;-60
2022/03/30 08:54:36;;;;;;;20.48;6.70;;;486.50;844.80;;;;;;5094269;28;20497;-60
2022/03/30 08:57:03;;;;;;;20.50;7.22;;;486.50;844.80;;;;;;5094012;28;20028;-64
2022/03/30 08:59:29;;;;;;;20.77;6.57;;;486.50;844.80;;;;;;5094413;28;20089;-70
2022/03/30 09:01:57;;;;;;;17.40;5.38;;;486.60;844.80;;;;;;5094414;28;20396;-68
2022/03/30 09:04:25;;;;;;;27.20;7.13;;;486.60;844.80;;;;;;5094343;28;20031;-69
2022/03/30 09:06:53;;;;;;;20.00;5.70;;;486.70;844.80;;;;;;5093860;28;20537;-69
2022/03/30 09:09:32;;;;;;;23.55;6.22;;;486.70;819.20;;;;;;5094029;28;20064;-60
2022/03/30 09:11:59;;;;;;;25.63;6.60;;;486.70;819.20;;;;;;5094131;28;20498;-69
2022/03/30 09:14:30;;;;;;;19.85;7.03;;;486.80;819.20;;;;;;5094205;28;20036;-59
2022/03/30 09:16:59;;;;;;;33.83;11.32;;;486.80;844.80;;;;;;5094273;28;20020;-69
2022/03/30 09:19:25;;;;;;;22.33;9.45;;;486.80;819.20;;;;;;5094370;28;20036;-69
2022/03/30 09:21:57;;;;;;;23.90;6.78;;;486.80;819.20;;;;;;5094151;28;20028;-64
2022/03/30 09:24:26;;;;;;;22.02;6.47;;;486.80;819.20;;;;;;5094224;28;20424;-70
2022/03/30 09:26:54;;;;;;;25.98;7.15;;;486.90;819.20;;;;;;5093751;28;20035;-59
2022/03/30 09:29:21;;;;;;;28.23;6.72;;;487.00;819.20;;;;;;5093935;28;20049;-67
2022/03/30 09:31:49;;;;;;;22.95;6.90;;;487.00;819.20;;;;;;5093852;28;20128;-61
2022/03/30 09:34:15;;;;;;;20.55;7.10;;;487.00;819.20;;;;;;5093513;28;20020;-70
2022/03/30 09:36:42;;;;;;;18.70;6.35;;;487.00;819.20;;;;;;5094207;28;20081;-59
2022/03/30 09:39:28;;;;;;;22.33;7.57;;;487.10;819.20;;;;;;5093968;28;20030;-59
2022/03/30 09:41:55;;;;;;;25.23;6.28;;;487.10;819.20;;;;;;5093864;28;20366;-59
2022/03/30 09:44:21;;;;;;;23.33;6.95;;;487.10;819.20;;;;;;5093592;28;20024;-67
2022/03/30 09:47:05;;;;;;;22.42;7.43;;;487.10;819.20;;;;;;5093560;28;20032;-68
2022/03/30 09:49:45;;;;;;;20.13;6.28;;;487.10;819.20;;;;;;5093749;28;20024;-69
2022/03/30 09:52:17;;;;;;;17.13;6.60;;;487.10;819.20;;;;;;5093970;28;20036;-69
2022/03/30 09:54:47;;;;;;;24.90;7.00;;;487.10;819.20;;;;;;5094042;28;20059;-69
2022/03/30 09:57:25;;;;;;;24.38;6.70;;;487.20;819.20;;;;;;5093502;28;20082;-69
2022/03/30 10:00:03;;;;;;;54.80;17.80;;;487.10;819.20;;;;;;5093601;28;20024;-59
2022/03/30 10:02:46;;;;;;;29.75;8.85;;;487.20;819.20;;;;;;5093660;28;20043;-69
2022/03/30 10:05:15;;;;;;;32.90;8.00;;;487.10;819.20;;;;;;5093736;28;20028;-63
2022/03/30 10:07:41;;;;;;;25.17;7.10;;;487.10;819.20;;;;;;5093364;28;20285;-60
2022/03/30 10:10:09;;;;;;;30.83;9.90;;;487.10;819.20;;;;;;5093610;28;20097;-62
2022/03/30 10:12:35;;;;;;;39.63;12.55;;;487.20;793.60;;;;;;5093424;28;20032;-61
2022/03/30 10:15:02;;;;;;;61.80;17.52;;;487.20;819.20;;;;;;5093317;28;20404;-63
2022/03/30 10:17:29;;;;;;;38.30;11.35;;;487.20;819.20;;;;;;5093590;28;20024;-59
2022/03/30 10:19:58;;;;;;;34.38;10.63;;;487.30;793.60;;;;;;5093419;28;20366;-60
2022/03/30 10:22:35;;;;;;;34.50;14.15;;;487.30;819.20;;;;;;5093484;28;20400;-59
2022/03/30 10:25:31;;;;;;;26.20;8.88;;;512.00;793.60;;;;;;5093241;28;20478;-69
2022/03/30 10:28:13;;;;;;;15.88;6.70;;;512.00;793.60;;;;;;5093319;28;20485;-62
2022/03/30 10:30:43;;;;;;;25.55;6.38;;;512.00;793.60;;;;;;5093229;28;20043;-60
2022/03/30 10:33:10;;;;;;;28.83;7.90;;;512.00;793.60;;;;;;5093092;28;20035;-60
2022/03/30 10:35:48;;;;;;;26.95;8.45;;;512.00;793.60;;;;;;5093215;28;20392;-60
2022/03/30 10:38:15;;;;;;;27.83;7.18;;;512.10;793.60;;;;;;5093175;28;20024;-68
2022/03/30 10:40:42;;;;;;;20.38;6.53;;;512.10;793.60;;;;;;5093133;28;20491;-69
2022/03/30 10:43:25;;;;;;;15.57;6.00;;;512.00;793.60;;;;;;5092932;28;20020;-69
2022/03/30 10:45:58;;;;;;;22.65;6.63;;;512.10;793.60;;;;;;5094036;28;20496;-60
2022/03/30 10:48:37;;;;;;;23.98;7.22;;;512.10;793.60;;;;;;5096850;28;20105;-69
2022/03/30 10:51:14;;;;;;;29.83;9.18;;;512.20;793.60;;;;;;5096940;28;20040;-60
2022/03/30 10:53:41;;;;;;;25.92;7.97;;;512.20;819.20;;;;;;5096531;28;20024;-68
2022/03/30 10:56:07;;;;;;;29.83;6.88;;;512.20;793.60;;;;;;5097152;28;20028;-67
2022/03/30 10:58:34;;;;;;;30.02;8.27;;;512.30;793.60;;;;;;5096527;28;20023;-59
2022/03/30 11:01:16;;;;;;;26.90;10.35;;;512.30;819.20;;;;;;5096540;28;20036;-58
2022/03/30 11:04:02;;;;;;;25.58;9.27;;;512.40;793.60;;;;;;5096717;28;20024;-60
2022/03/30 11:06:29;;;;;;;23.98;8.70;;;512.40;793.60;;;;;;5096460;28;20065;-63
2022/03/30 11:09:01;;;;;;;21.45;6.78;;;512.40;793.60;;;;;;5096148;28;20047;-69
2022/03/30 11:11:30;;;;;;;18.70;6.60;;;512.40;793.60;;;;;;5096347;28;20040;-61
2022/03/30 11:14:25;;;;;;;22.42;6.80;;;512.40;793.60;;;;;;5096218;28;20054;-65
2022/03/30 11:16:56;;;;;;;25.98;9.00;;;512.50;793.60;;;;;;5094005;28;20044;-67
2022/03/30 11:19:29;;;;;;;15.85;6.90;;;512.60;793.60;;;;;;5096278;28;20374;-69
2022/03/30 11:22:07;;;;;;;16.52;5.75;;;512.70;768.00;;;;;;5096338;28;20032;-69
2022/03/30 11:24:33;;;;;;;27.55;8.93;;;512.80;768.00;;;;;;5096256;28;20027;-60
2022/03/30 11:26:58;;;;;;;21.50;7.63;;;512.80;768.00;;;;;;5096272;28;20365;-60
2022/03/30 11:29:52;;;;;;;17.35;6.78;;;512.90;768.00;;;;;;5095804;28;20019;-69
2022/03/30 11:32:24;;;;;;;21.55;7.90;;;537.60;793.60;;;;;;5095873;28;20047;-60
2022/03/30 11:34:58;;;;;;;28.17;7.57;;;537.70;793.60;;;;;;5095667;28;20055;-61
2022/03/30 11:37:28;;;;;;;;;;;537.80;768.00;;;;;;5096364;28;20031;-60
2022/03/30 11:40:11;;;;;;;19.70;6.07;;;537.70;768.00;;;;;;5095893;28;19938;-66
2022/03/30 11:42:38;;;;;;;27.45;7.85;;;537.70;768.00;;;;;;5095852;28;20039;-61
2022/03/30 11:45:21;;;;;;;28.80;8.20;;;537.70;768.00;;;;;;5095612;28;20027;-70
2022/03/30 11:47:48;;;;;;;28.92;7.40;;;537.80;768.00;;;;;;5095789;28;20055;-66
2022/03/30 11:50:24;;;;;;;22.08;7.32;;;537.80;768.00;;;;;;5093681;28;20054;-62
2022/03/30 11:52:59;;;;;;;48.90;9.30;;;537.90;768.00;;;;;;5094057;28;20492;-62
2022/03/30 11:55:26;;;;;;;22.10;7.18;;;538.10;768.00;;;;;;5091281;28;20165;-65
2022/03/30 11:57:52;;;;;;;23.05;7.53;;;538.10;768.00;;;;;;5093408;28;20113;-66
2022/03/30 12:00:22;;;;;;;20.88;6.47;;;538.10;768.00;;;;;;5094859;28;20469;-65
2022/03/30 12:02:48;;;;;;;18.10;6.80;;;538.20;768.00;;;;;;5092556;28;20016;-65
2022/03/30 12:05:14;;;;;;;20.17;7.18;;;538.20;768.00;;;;;;5095010;28;20031;-63
2022/03/30 12:07:40;;;;;;;17.33;6.30;;;538.20;768.00;;;;;;5094603;28;20028;-65
2022/03/30 12:10:15;;;;;;;23.70;6.65;;;538.30;768.00;;;;;;5094814;28;20044;-68
2022/03/30 12:12:42;;;;;;;19.63;8.27;;;538.30;768.00;;;;;;5094726;28;20111;-60
2022/03/30 12:15:19;;;;;;;22.58;8.75;;;538.40;768.00;;;;;;5094598;28;20048;-63
2022/03/30 12:17:56;;;;;;;16.58;8.63;;;538.30;768.00;;;;;;5092155;28;20034;-60
2022/03/30 12:20:33;;;;;;;19.77;9.80;;;538.40;742.40;;;;;;5094549;28;20081;-60